sensor_id;sensor_type;location;lat;lon;timestamp;temperature;humidity
52947;DHT22;68773;40.400;17.260;2023-04-24T00:00:11;15.90;97.90
52947;DHT22;68773;40.400;17.260;2023-04-24T00:02:44;16.00;97.80
52947;DHT22;68773;40.400;17.260;2023-04-24T00:05:17;16.00;97.80
52947;DHT22;68773;40.400;17.260;2023-04-24T00:07:44;16.00;97.60
52947;DHT22;68773;40.400;17.260;2023-04-24T00:10:10;16.10;97.60
52947;DHT22;68773;40.400;17.260;2023-04-24T00:12:36;16.00;97.60
52947;DHT22;68773;40.400;17.260;2023-04-24T00:15:03;15.90;97.80
52947;DHT22;68773;40.400;17.260;2023-04-24T00:17:29;15.80;98.10
52947;DHT22;68773;40.400;17.260;2023-04-24T00:19:55;15.80;98.40
52947;DHT22;68773;40.400;17.260;2023-04-24T00:22:25;15.80;98.70
52947;DHT22;68773;40.400;17.260;2023-04-24T00:24:51;15.90;99.20
52947;DHT22;68773;40.400;17.260;2023-04-24T00:27:16;15.80;99.20
52947;DHT22;68773;40.400;17.260;2023-04-24T00:29:42;15.80;99.30
52947;DHT22;68773;40.400;17.260;2023-04-24T00:32:08;15.90;99.20
52947;DHT22;68773;40.400;17.260;2023-04-24T00:34:34;15.70;99.40
52947;DHT22;68773;40.400;17.260;2023-04-24T00:36:59;15.80;99.60
52947;DHT22;68773;40.400;17.260;2023-04-24T00:39:25;15.80;99.50
52947;DHT22;68773;40.400;17.260;2023-04-24T00:41:51;15.80;99.70
52947;DHT22;68773;40.400;17.260;2023-04-24T00:44:18;15.80;99.70
52947;DHT22;68773;40.400;17.260;2023-04-24T00:46:44;15.90;99.90
52947;DHT22;68773;40.400;17.260;2023-04-24T00:49:09;15.80;99.70
52947;DHT22;68773;40.400;17.260;2023-04-24T00:51:36;15.90;99.90
52947;DHT22;68773;40.400;17.260;2023-04-24T00:54:02;15.80;99.60
52947;DHT22;68773;40.400;17.260;2023-04-24T00:56:28;15.90;99.40
52947;DHT22;68773;40.400;17.260;2023-04-24T00:58:54;15.70;99.40
52947;DHT22;68773;40.400;17.260;2023-04-24T01:01:21;15.90;99.40
52947;DHT22;68773;40.400;17.260;2023-04-24T01:03:47;15.80;99.20
52947;DHT22;68773;40.400;17.260;2023-04-24T01:06:14;15.40;98.40
52947;DHT22;68773;40.400;17.260;2023-04-24T01:08:41;15.30;99.10
52947;DHT22;68773;40.400;17.260;2023-04-24T01:11:07;15.30;99.60
52947;DHT22;68773;40.400;17.260;2023-04-24T01:13:34;15.00;99.50
52947;DHT22;68773;40.400;17.260;2023-04-24T01:16:00;14.80;99.60
52947;DHT22;68773;40.400;17.260;2023-04-24T01:18:26;14.70;99.90
52947;DHT22;68773;40.400;17.260;2023-04-24T01:20:54;14.50;99.90
52947;DHT22;68773;40.400;17.260;2023-04-24T01:23:22;14.50;99.90
52947;DHT22;68773;40.400;17.260;2023-04-24T01:25:49;14.50;99.90
52947;DHT22;68773;40.400;17.260;2023-04-24T01:28:16;14.40;99.90
52947;DHT22;68773;40.400;17.260;2023-04-24T01:30:42;14.50;99.90
52947;DHT22;68773;40.400;17.260;2023-04-24T01:33:08;14.80;99.90
52947;DHT22;68773;40.400;17.260;2023-04-24T01:35:33;14.60;99.90
52947;DHT22;68773;40.400;17.260;2023-04-24T01:38:01;14.80;99.90
52947;DHT22;68773;40.400;17.260;2023-04-24T01:40:27;14.80;99.90
52947;DHT22;68773;40.400;17.260;2023-04-24T01:42:53;14.80;99.90
52947;DHT22;68773;40.400;17.260;2023-04-24T01:45:19;15.10;99.90
52947;DHT22;68773;40.400;17.260;2023-04-24T01:47:45;14.90;99.90
52947;DHT22;68773;40.400;17.260;2023-04-24T01:50:11;14.90;99.90
52947;DHT22;68773;40.400;17.260;2023-04-24T01:52:37;14.60;99.90
52947;DHT22;68773;40.400;17.260;2023-04-24T01:55:04;14.50;99.90
52947;DHT22;68773;40.400;17.260;2023-04-24T01:57:34;14.60;99.90
52947;DHT22;68773;40.400;17.260;2023-04-24T02:00:00;14.30;99.90
52947;DHT22;68773;40.400;17.260;2023-04-24T02:02:26;14.20;99.90
52947;DHT22;68773;40.400;17.260;2023-04-24T02:04:55;14.20;99.90
52947;DHT22;68773;40.400;17.260;2023-04-24T02:07:21;14.20;99.90
52947;DHT22;68773;40.400;17.260;2023-04-24T02:09:47;14.10;99.90
52947;DHT22;68773;40.400;17.260;2023-04-24T02:12:13;14.00;99.90
52947;DHT22;68773;40.400;17.260;2023-04-24T02:14:39;13.90;99.90
52947;DHT22;68773;40.400;17.260;2023-04-24T02:17:05;14.00;99.90
52947;DHT22;68773;40.400;17.260;2023-04-24T02:19:31;14.10;99.90
52947;DHT22;68773;40.400;17.260;2023-04-24T02:21:57;13.90;99.90
52947;DHT22;68773;40.400;17.260;2023-04-24T02:24:23;13.80;99.90
52947;DHT22;68773;40.400;17.260;2023-04-24T02:26:48;13.90;99.90
52947;DHT22;68773;40.400;17.260;2023-04-24T02:29:14;13.80;99.90
52947;DHT22;68773;40.400;17.260;2023-04-24T02:31:40;13.90;99.90
52947;DHT22;68773;40.400;17.260;2023-04-24T02:34:06;14.00;99.90
52947;DHT22;68773;40.400;17.260;2023-04-24T02:36:32;14.20;99.90
52947;DHT22;68773;40.400;17.260;2023-04-24T02:38:58;14.30;99.90
52947;DHT22;68773;40.400;17.260;2023-04-24T02:41:23;14.60;99.90
52947;DHT22;68773;40.400;17.260;2023-04-24T02:43:49;14.50;99.90
52947;DHT22;68773;40.400;17.260;2023-04-24T02:46:15;14.30;99.90
52947;DHT22;68773;40.400;17.260;2023-04-24T02:48:41;14.20;99.90
52947;DHT22;68773;40.400;17.260;2023-04-24T02:51:07;14.30;99.90
52947;DHT22;68773;40.400;17.260;2023-04-24T02:53:33;14.50;99.90
52947;DHT22;68773;40.400;17.260;2023-04-24T02:55:58;14.40;99.90
52947;DHT22;68773;40.400;17.260;2023-04-24T02:58:24;14.50;99.90
52947;DHT22;68773;40.400;17.260;2023-04-24T03:00:54;14.50;99.90
52947;DHT22;68773;40.400;17.260;2023-04-24T03:03:21;14.50;99.90
52947;DHT22;68773;40.400;17.260;2023-04-24T03:05:46;14.40;99.90
52947;DHT22;68773;40.400;17.260;2023-04-24T03:08:12;14.50;99.90
52947;DHT22;68773;40.400;17.260;2023-04-24T03:10:40;14.60;99.90
52947;DHT22;68773;40.400;17.260;2023-04-24T03:13:05;14.60;99.90
52947;DHT22;68773;40.400;17.260;2023-04-24T03:15:31;14.70;99.90
52947;DHT22;68773;40.400;17.260;2023-04-24T03:17:57;14.80;99.90
52947;DHT22;68773;40.400;17.260;2023-04-24T03:20:23;14.70;99.90
52947;DHT22;68773;40.400;17.260;2023-04-24T03:22:49;14.70;99.90
52947;DHT22;68773;40.400;17.260;2023-04-24T03:25:15;14.70;99.90
52947;DHT22;68773;40.400;17.260;2023-04-24T03:27:40;14.90;99.90
52947;DHT22;68773;40.400;17.260;2023-04-24T03:30:07;14.90;99.90
52947;DHT22;68773;40.400;17.260;2023-04-24T03:32:33;14.70;99.90
52947;DHT22;68773;40.400;17.260;2023-04-24T03:34:59;14.80;99.90
52947;DHT22;68773;40.400;17.260;2023-04-24T03:37:25;14.70;99.90
52947;DHT22;68773;40.400;17.260;2023-04-24T03:39:51;14.70;99.90
52947;DHT22;68773;40.400;17.260;2023-04-24T03:42:17;14.80;99.90
52947;DHT22;68773;40.400;17.260;2023-04-24T03:44:43;14.80;99.90
52947;DHT22;68773;40.400;17.260;2023-04-24T03:47:09;14.80;99.90
52947;DHT22;68773;40.400;17.260;2023-04-24T03:49:34;14.90;99.90
52947;DHT22;68773;40.400;17.260;2023-04-24T03:52:00;15.00;99.90
52947;DHT22;68773;40.400;17.260;2023-04-24T03:54:26;14.80;99.90
52947;DHT22;68773;40.400;17.260;2023-04-24T03:56:52;14.70;99.90
52947;DHT22;68773;40.400;17.260;2023-04-24T03:59:18;15.10;99.90
52947;DHT22;68773;40.400;17.260;2023-04-24T04:01:43;14.90;99.90
52947;DHT22;68773;40.400;17.260;2023-04-24T04:04:09;14.90;99.90
52947;DHT22;68773;40.400;17.260;2023-04-24T04:06:35;14.70;99.90
52947;DHT22;68773;40.400;17.260;2023-04-24T04:09:02;14.80;99.90
52947;DHT22;68773;40.400;17.260;2023-04-24T04:11:28;14.90;99.90
52947;DHT22;68773;40.400;17.260;2023-04-24T04:13:54;14.80;99.90
52947;DHT22;68773;40.400;17.260;2023-04-24T04:16:20;14.90;99.90
52947;DHT22;68773;40.400;17.260;2023-04-24T04:18:46;14.90;99.90
52947;DHT22;68773;40.400;17.260;2023-04-24T04:21:12;14.90;99.90
52947;DHT22;68773;40.400;17.260;2023-04-24T04:23:38;15.00;99.90
52947;DHT22;68773;40.400;17.260;2023-04-24T04:26:05;15.00;99.90
52947;DHT22;68773;40.400;17.260;2023-04-24T04:28:31;15.00;99.90
52947;DHT22;68773;40.400;17.260;2023-04-24T04:30:57;14.90;99.90
52947;DHT22;68773;40.400;17.260;2023-04-24T04:33:24;15.00;99.90
52947;DHT22;68773;40.400;17.260;2023-04-24T04:35:51;15.00;99.90
52947;DHT22;68773;40.400;17.260;2023-04-24T04:38:18;15.00;99.90
52947;DHT22;68773;40.400;17.260;2023-04-24T04:40:45;15.10;99.90
52947;DHT22;68773;40.400;17.260;2023-04-24T04:43:11;15.00;99.90
52947;DHT22;68773;40.400;17.260;2023-04-24T04:45:39;15.20;99.90
52947;DHT22;68773;40.400;17.260;2023-04-24T04:48:06;14.90;99.90
52947;DHT22;68773;40.400;17.260;2023-04-24T04:50:38;15.00;99.90
52947;DHT22;68773;40.400;17.260;2023-04-24T04:53:04;15.10;99.90
52947;DHT22;68773;40.400;17.260;2023-04-24T04:55:30;14.90;99.90
52947;DHT22;68773;40.400;17.260;2023-04-24T04:57:56;14.90;99.90
52947;DHT22;68773;40.400;17.260;2023-04-24T05:00:22;14.90;99.90
52947;DHT22;68773;40.400;17.260;2023-04-24T05:02:51;15.10;99.90
52947;DHT22;68773;40.400;17.260;2023-04-24T05:05:17;14.50;99.90
52947;DHT22;68773;40.400;17.260;2023-04-24T05:07:43;14.40;99.90
52947;DHT22;68773;40.400;17.260;2023-04-24T05:10:09;14.40;99.90
52947;DHT22;68773;40.400;17.260;2023-04-24T05:12:36;14.30;99.90
52947;DHT22;68773;40.400;17.260;2023-04-24T05:15:02;14.40;99.90
52947;DHT22;68773;40.400;17.260;2023-04-24T05:17:28;14.50;99.90
52947;DHT22;68773;40.400;17.260;2023-04-24T05:19:54;14.50;99.90
52947;DHT22;68773;40.400;17.260;2023-04-24T05:22:20;14.80;99.90
52947;DHT22;68773;40.400;17.260;2023-04-24T05:24:47;15.00;99.90
52947;DHT22;68773;40.400;17.260;2023-04-24T05:27:13;15.20;99.90
52947;DHT22;68773;40.400;17.260;2023-04-24T05:29:39;15.10;99.90
52947;DHT22;68773;40.400;17.260;2023-04-24T05:32:05;15.20;99.90
52947;DHT22;68773;40.400;17.260;2023-04-24T05:34:31;15.30;99.90
52947;DHT22;68773;40.400;17.260;2023-04-24T05:36:57;15.30;99.90
52947;DHT22;68773;40.400;17.260;2023-04-24T05:39:23;15.10;99.90
52947;DHT22;68773;40.400;17.260;2023-04-24T05:41:50;15.30;99.90
52947;DHT22;68773;40.400;17.260;2023-04-24T05:44:16;15.20;99.90
52947;DHT22;68773;40.400;17.260;2023-04-24T05:46:42;15.40;99.90
52947;DHT22;68773;40.400;17.260;2023-04-24T05:49:08;15.50;99.90
52947;DHT22;68773;40.400;17.260;2023-04-24T05:51:33;15.50;99.90
52947;DHT22;68773;40.400;17.260;2023-04-24T05:53:59;15.70;99.90
52947;DHT22;68773;40.400;17.260;2023-04-24T05:56:25;15.90;99.90
52947;DHT22;68773;40.400;17.260;2023-04-24T05:58:51;15.90;99.90
52947;DHT22;68773;40.400;17.260;2023-04-24T06:01:17;16.10;99.90
52947;DHT22;68773;40.400;17.260;2023-04-24T06:03:43;16.10;99.90
52947;DHT22;68773;40.400;17.260;2023-04-24T06:06:09;16.40;99.90
52947;DHT22;68773;40.400;17.260;2023-04-24T06:08:35;16.40;99.90
52947;DHT22;68773;40.400;17.260;2023-04-24T06:11:01;16.40;99.90
52947;DHT22;68773;40.400;17.260;2023-04-24T06:13:26;16.40;99.90
52947;DHT22;68773;40.400;17.260;2023-04-24T06:15:52;16.50;99.90
52947;DHT22;68773;40.400;17.260;2023-04-24T06:18:18;16.50;99.90
52947;DHT22;68773;40.400;17.260;2023-04-24T06:20:45;16.60;99.90
52947;DHT22;68773;40.400;17.260;2023-04-24T06:23:11;16.90;99.90
52947;DHT22;68773;40.400;17.260;2023-04-24T06:25:37;16.90;99.70
52947;DHT22;68773;40.400;17.260;2023-04-24T06:28:04;16.70;99.50
52947;DHT22;68773;40.400;17.260;2023-04-24T06:30:30;16.60;99.70
52947;DHT22;68773;40.400;17.260;2023-04-24T06:32:56;16.70;99.90
52947;DHT22;68773;40.400;17.260;2023-04-24T06:35:22;16.80;99.50
52947;DHT22;68773;40.400;17.260;2023-04-24T06:37:47;17.20;98.90
52947;DHT22;68773;40.400;17.260;2023-04-24T06:40:13;17.30;95.70
52947;DHT22;68773;40.400;17.260;2023-04-24T06:42:39;17.20;91.70
52947;DHT22;68773;40.400;17.260;2023-04-24T06:45:05;16.80;92.10
52947;DHT22;68773;40.400;17.260;2023-04-24T06:47:31;17.00;94.30
52947;DHT22;68773;40.400;17.260;2023-04-24T06:49:57;17.30;94.80
52947;DHT22;68773;40.400;17.260;2023-04-24T06:52:23;17.20;95.60
52947;DHT22;68773;40.400;17.260;2023-04-24T06:54:49;17.00;98.20
52947;DHT22;68773;40.400;17.260;2023-04-24T06:57:14;17.20;99.10
52947;DHT22;68773;40.400;17.260;2023-04-24T06:59:41;16.80;99.90
52947;DHT22;68773;40.400;17.260;2023-04-24T07:02:07;16.80;99.90
52947;DHT22;68773;40.400;17.260;2023-04-24T07:04:33;17.10;99.90
52947;DHT22;68773;40.400;17.260;2023-04-24T07:06:59;17.00;99.90
52947;DHT22;68773;40.400;17.260;2023-04-24T07:09:26;17.00;99.90
52947;DHT22;68773;40.400;17.260;2023-04-24T07:11:52;16.90;99.90
52947;DHT22;68773;40.400;17.260;2023-04-24T07:14:19;17.10;99.90
52947;DHT22;68773;40.400;17.260;2023-04-24T07:16:45;16.80;99.90
52947;DHT22;68773;40.400;17.260;2023-04-24T07:19:11;16.80;99.90
52947;DHT22;68773;40.400;17.260;2023-04-24T07:21:37;17.00;99.90
52947;DHT22;68773;40.400;17.260;2023-04-24T07:24:03;16.60;99.90
52947;DHT22;68773;40.400;17.260;2023-04-24T07:26:30;16.60;99.90
52947;DHT22;68773;40.400;17.260;2023-04-24T07:28:55;16.70;99.90
52947;DHT22;68773;40.400;17.260;2023-04-24T07:31:21;16.60;99.90
52947;DHT22;68773;40.400;17.260;2023-04-24T07:33:47;16.60;99.90
52947;DHT22;68773;40.400;17.260;2023-04-24T07:36:14;16.70;99.90
52947;DHT22;68773;40.400;17.260;2023-04-24T07:38:47;16.90;99.90
52947;DHT22;68773;40.400;17.260;2023-04-24T07:41:13;16.60;99.90
52947;DHT22;68773;40.400;17.260;2023-04-24T07:43:39;16.80;99.90
52947;DHT22;68773;40.400;17.260;2023-04-24T07:46:06;16.90;99.90
52947;DHT22;68773;40.400;17.260;2023-04-24T07:48:32;16.80;99.90
52947;DHT22;68773;40.400;17.260;2023-04-24T07:50:57;17.00;99.90
52947;DHT22;68773;40.400;17.260;2023-04-24T07:53:23;17.20;99.90
52947;DHT22;68773;40.400;17.260;2023-04-24T07:55:49;17.10;99.90
52947;DHT22;68773;40.400;17.260;2023-04-24T07:58:15;17.30;99.80
52947;DHT22;68773;40.400;17.260;2023-04-24T08:00:40;17.30;99.90
52947;DHT22;68773;40.400;17.260;2023-04-24T08:03:06;17.30;99.20
52947;DHT22;68773;40.400;17.260;2023-04-24T08:05:32;17.20;98.70
52947;DHT22;68773;40.400;17.260;2023-04-24T08:07:58;17.20;98.00
52947;DHT22;68773;40.400;17.260;2023-04-24T08:10:25;17.50;97.30
52947;DHT22;68773;40.400;17.260;2023-04-24T08:12:51;17.20;97.60
52947;DHT22;68773;40.400;17.260;2023-04-24T08:15:17;17.20;98.10
52947;DHT22;68773;40.400;17.260;2023-04-24T08:17:43;17.30;98.20
52947;DHT22;68773;40.400;17.260;2023-04-24T08:20:10;17.60;97.20
52947;DHT22;68773;40.400;17.260;2023-04-24T08:22:39;17.70;97.30
52947;DHT22;68773;40.400;17.260;2023-04-24T08:25:06;17.60;97.30
52947;DHT22;68773;40.400;17.260;2023-04-24T08:27:32;17.80;98.00
52947;DHT22;68773;40.400;17.260;2023-04-24T08:29:58;17.90;97.30
52947;DHT22;68773;40.400;17.260;2023-04-24T08:32:25;17.70;98.70
52947;DHT22;68773;40.400;17.260;2023-04-24T08:34:57;17.70;99.50
52947;DHT22;68773;40.400;17.260;2023-04-24T08:37:27;17.70;99.90
52947;DHT22;68773;40.400;17.260;2023-04-24T08:39:53;17.50;99.90
52947;DHT22;68773;40.400;17.260;2023-04-24T08:42:20;17.50;99.90
52947;DHT22;68773;40.400;17.260;2023-04-24T08:44:47;17.40;99.90
52947;DHT22;68773;40.400;17.260;2023-04-24T08:47:15;17.20;99.90
52947;DHT22;68773;40.400;17.260;2023-04-24T08:49:41;17.20;99.90
52947;DHT22;68773;40.400;17.260;2023-04-24T08:52:08;17.10;99.90
52947;DHT22;68773;40.400;17.260;2023-04-24T08:54:35;17.10;99.90
52947;DHT22;68773;40.400;17.260;2023-04-24T08:57:02;17.50;99.90
52947;DHT22;68773;40.400;17.260;2023-04-24T08:59:29;17.20;99.90
52947;DHT22;68773;40.400;17.260;2023-04-24T09:01:55;17.10;99.90
52947;DHT22;68773;40.400;17.260;2023-04-24T09:04:23;17.00;99.90
52947;DHT22;68773;40.400;17.260;2023-04-24T09:06:51;17.10;99.90
52947;DHT22;68773;40.400;17.260;2023-04-24T09:09:20;17.10;99.90
52947;DHT22;68773;40.400;17.260;2023-04-24T09:11:47;17.20;99.90
52947;DHT22;68773;40.400;17.260;2023-04-24T09:14:14;17.40;99.90
52947;DHT22;68773;40.400;17.260;2023-04-24T09:16:40;17.60;99.90
52947;DHT22;68773;40.400;17.260;2023-04-24T09:19:06;17.70;99.90
52947;DHT22;68773;40.400;17.260;2023-04-24T09:21:33;17.70;99.90
52947;DHT22;68773;40.400;17.260;2023-04-24T09:24:07;17.70;99.90
52947;DHT22;68773;40.400;17.260;2023-04-24T09:26:36;17.80;99.90
52947;DHT22;68773;40.400;17.260;2023-04-24T09:29:03;17.80;99.90
52947;DHT22;68773;40.400;17.260;2023-04-24T09:31:29;18.00;99.90
52947;DHT22;68773;40.400;17.260;2023-04-24T09:33:57;17.90;99.90
52947;DHT22;68773;40.400;17.260;2023-04-24T09:36:31;17.70;99.90
52947;DHT22;68773;40.400;17.260;2023-04-24T09:39:04;17.80;99.90
52947;DHT22;68773;40.400;17.260;2023-04-24T09:41:32;17.70;99.90
52947;DHT22;68773;40.400;17.260;2023-04-24T09:44:25;18.10;99.90
52947;DHT22;68773;40.400;17.260;2023-04-24T09:46:55;18.10;99.20
52947;DHT22;68773;40.400;17.260;2023-04-24T09:49:29;17.70;99.50
52947;DHT22;68773;40.400;17.260;2023-04-24T09:52:03;17.60;99.90
52947;DHT22;68773;40.400;17.260;2023-04-24T09:54:29;17.80;99.90
52947;DHT22;68773;40.400;17.260;2023-04-24T09:56:55;17.40;99.90
52947;DHT22;68773;40.400;17.260;2023-04-24T09:59:22;17.60;99.90
52947;DHT22;68773;40.400;17.260;2023-04-24T10:01:48;17.60;99.90
52947;DHT22;68773;40.400;17.260;2023-04-24T10:04:26;17.40;99.90
52947;DHT22;68773;40.400;17.260;2023-04-24T10:06:54;17.40;99.90
52947;DHT22;68773;40.400;17.260;2023-04-24T10:09:22;17.60;99.90
52947;DHT22;68773;40.400;17.260;2023-04-24T10:11:53;17.30;99.90
52947;DHT22;68773;40.400;17.260;2023-04-24T10:14:23;17.30;99.90
52947;DHT22;68773;40.400;17.260;2023-04-24T10:16:50;17.60;99.90
52947;DHT22;68773;40.400;17.260;2023-04-24T10:19:18;17.70;99.90
52947;DHT22;68773;40.400;17.260;2023-04-24T10:21:44;17.60;99.30
52947;DHT22;68773;40.400;17.260;2023-04-24T10:24:15;18.00;97.40
52947;DHT22;68773;40.400;17.260;2023-04-24T10:26:42;17.80;96.30
52947;DHT22;68773;40.400;17.260;2023-04-24T10:29:08;18.10;94.90
52947;DHT22;68773;40.400;17.260;2023-04-24T10:31:37;17.90;94.80
52947;DHT22;68773;40.400;17.260;2023-04-24T10:34:05;17.70;95.50
52947;DHT22;68773;40.400;17.260;2023-04-24T10:36:33;17.80;95.90
52947;DHT22;68773;40.400;17.260;2023-04-24T10:39:01;17.80;96.10
52947;DHT22;68773;40.400;17.260;2023-04-24T10:41:27;18.10;96.90
52947;DHT22;68773;40.400;17.260;2023-04-24T10:46:31;17.90;97.10
52947;DHT22;68773;40.400;17.260;2023-04-24T10:48:57;17.90;97.10
52947;DHT22;68773;40.400;17.260;2023-04-24T10:51:24;17.80;96.00
52947;DHT22;68773;40.400;17.260;2023-04-24T10:53:51;17.90;95.00
52947;DHT22;68773;40.400;17.260;2023-04-24T10:56:17;17.90;95.30
52947;DHT22;68773;40.400;17.260;2023-04-24T10:58:50;18.10;95.20
52947;DHT22;68773;40.400;17.260;2023-04-24T11:01:28;18.10;94.80
52947;DHT22;68773;40.400;17.260;2023-04-24T11:04:02;17.90;94.60
52947;DHT22;68773;40.400;17.260;2023-04-24T11:06:29;18.10;94.40
52947;DHT22;68773;40.400;17.260;2023-04-24T11:09:07;18.40;95.10
52947;DHT22;68773;40.400;17.260;2023-04-24T11:11:35;18.20;95.20
52947;DHT22;68773;40.400;17.260;2023-04-24T11:14:02;18.50;95.10
52947;DHT22;68773;40.400;17.260;2023-04-24T11:16:44;18.40;95.30
52947;DHT22;68773;40.400;17.260;2023-04-24T11:27:05;17.50;99.50
52947;DHT22;68773;40.400;17.260;2023-04-24T11:32:40;17.60;99.90
52947;DHT22;68773;40.400;17.260;2023-04-24T11:35:22;17.30;99.90
52947;DHT22;68773;40.400;17.260;2023-04-24T11:37:54;17.60;99.90
52947;DHT22;68773;40.400;17.260;2023-04-24T11:40:21;17.50;99.90
52947;DHT22;68773;40.400;17.260;2023-04-24T11:42:52;17.50;99.90
52947;DHT22;68773;40.400;17.260;2023-04-24T11:45:23;17.50;99.90
52947;DHT22;68773;40.400;17.260;2023-04-24T11:47:49;17.30;99.90
52947;DHT22;68773;40.400;17.260;2023-04-24T11:50:17;17.50;99.90
52947;DHT22;68773;40.400;17.260;2023-04-24T11:52:45;17.40;99.90
52947;DHT22;68773;40.400;17.260;2023-04-24T11:57:43;17.40;99.90
52947;DHT22;68773;40.400;17.260;2023-04-24T12:02:51;17.40;99.90
52947;DHT22;68773;40.400;17.260;2023-04-24T12:05:34;16.90;99.90
52947;DHT22;68773;40.400;17.260;2023-04-24T12:08:00;17.00;99.90
52947;DHT22;68773;40.400;17.260;2023-04-24T12:10:28;16.90;99.90
52947;DHT22;68773;40.400;17.260;2023-04-24T12:12:56;16.50;99.90
52947;DHT22;68773;40.400;17.260;2023-04-24T12:15:22;16.60;99.90
52947;DHT22;68773;40.400;17.260;2023-04-24T12:17:50;16.60;99.90
52947;DHT22;68773;40.400;17.260;2023-04-24T12:20:16;16.70;99.90
52947;DHT22;68773;40.400;17.260;2023-04-24T12:22:55;16.60;99.90
52947;DHT22;68773;40.400;17.260;2023-04-24T12:25:31;16.80;99.90
52947;DHT22;68773;40.400;17.260;2023-04-24T12:30:30;16.80;99.40
52947;DHT22;68773;40.400;17.260;2023-04-24T12:32:58;17.20;99.10
52947;DHT22;68773;40.400;17.260;2023-04-24T12:35:25;17.00;98.40
52947;DHT22;68773;40.400;17.260;2023-04-24T12:37:51;17.20;97.90
52947;DHT22;68773;40.400;17.260;2023-04-24T12:40:19;17.40;97.10
52947;DHT22;68773;40.400;17.260;2023-04-24T12:42:50;17.70;96.40
52947;DHT22;68773;40.400;17.260;2023-04-24T12:45:17;17.70;95.70
52947;DHT22;68773;40.400;17.260;2023-04-24T12:47:44;18.60;94.80
52947;DHT22;68773;40.400;17.260;2023-04-24T12:50:12;19.00;93.50
52947;DHT22;68773;40.400;17.260;2023-04-24T12:52:39;19.90;92.80
52947;DHT22;68773;40.400;17.260;2023-04-24T12:55:05;20.40;91.70
52947;DHT22;68773;40.400;17.260;2023-04-24T12:57:36;21.00;90.10
52947;DHT22;68773;40.400;17.260;2023-04-24T13:00:04;20.00;89.80
52947;DHT22;68773;40.400;17.260;2023-04-24T13:02:30;19.60;89.70
52947;DHT22;68773;40.400;17.260;2023-04-24T13:04:57;19.50;90.80
52947;DHT22;68773;40.400;17.260;2023-04-24T13:07:24;18.80;92.00
52947;DHT22;68773;40.400;17.260;2023-04-24T13:09:51;18.60;92.80
52947;DHT22;68773;40.400;17.260;2023-04-24T13:12:17;18.20;94.30
52947;DHT22;68773;40.400;17.260;2023-04-24T13:14:43;18.30;94.40
52947;DHT22;68773;40.400;17.260;2023-04-24T13:17:08;18.00;95.00
52947;DHT22;68773;40.400;17.260;2023-04-24T13:19:38;18.20;95.20
52947;DHT22;68773;40.400;17.260;2023-04-24T13:22:04;18.00;96.20
52947;DHT22;68773;40.400;17.260;2023-04-24T13:24:31;18.10;96.30
52947;DHT22;68773;40.400;17.260;2023-04-24T13:26:57;18.00;95.80
52947;DHT22;68773;40.400;17.260;2023-04-24T13:29:23;18.10;95.50
52947;DHT22;68773;40.400;17.260;2023-04-24T13:31:51;18.10;95.80
52947;DHT22;68773;40.400;17.260;2023-04-24T13:34:17;18.10;96.00
52947;DHT22;68773;40.400;17.260;2023-04-24T13:36:44;18.50;95.50
52947;DHT22;68773;40.400;17.260;2023-04-24T13:39:10;18.80;93.30
52947;DHT22;68773;40.400;17.260;2023-04-24T13:41:36;18.70;90.70
52947;DHT22;68773;40.400;17.260;2023-04-24T13:44:02;18.80;93.10
52947;DHT22;68773;40.400;17.260;2023-04-24T13:46:28;18.80;93.10
52947;DHT22;68773;40.400;17.260;2023-04-24T13:48:54;19.00;90.90
52947;DHT22;68773;40.400;17.260;2023-04-24T13:51:20;18.90;90.70
52947;DHT22;68773;40.400;17.260;2023-04-24T13:53:46;19.00;88.80
52947;DHT22;68773;40.400;17.260;2023-04-24T13:56:11;19.20;86.10
52947;DHT22;68773;40.400;17.260;2023-04-24T13:58:39;19.50;86.30
52947;DHT22;68773;40.400;17.260;2023-04-24T14:01:05;19.50;87.40
52947;DHT22;68773;40.400;17.260;2023-04-24T14:03:30;19.40;83.40
52947;DHT22;68773;40.400;17.260;2023-04-24T14:05:56;19.70;80.90
52947;DHT22;68773;40.400;17.260;2023-04-24T14:08:23;19.80;79.30
52947;DHT22;68773;40.400;17.260;2023-04-24T14:10:49;19.80;77.90
52947;DHT22;68773;40.400;17.260;2023-04-24T14:13:16;20.20;77.70
52947;DHT22;68773;40.400;17.260;2023-04-24T14:15:42;20.10;78.50
52947;DHT22;68773;40.400;17.260;2023-04-24T14:18:08;20.80;77.70
52947;DHT22;68773;40.400;17.260;2023-04-24T14:20:33;21.10;76.40
52947;DHT22;68773;40.400;17.260;2023-04-24T14:22:59;21.30;75.60
52947;DHT22;68773;40.400;17.260;2023-04-24T14:25:25;21.40;73.70
52947;DHT22;68773;40.400;17.260;2023-04-24T14:27:51;21.30;74.70
52947;DHT22;68773;40.400;17.260;2023-04-24T14:30:17;21.50;73.80
52947;DHT22;68773;40.400;17.260;2023-04-24T14:32:43;21.40;74.70
52947;DHT22;68773;40.400;17.260;2023-04-24T14:35:09;21.50;75.00
52947;DHT22;68773;40.400;17.260;2023-04-24T14:37:35;21.70;74.50
52947;DHT22;68773;40.400;17.260;2023-04-24T14:40:02;21.80;75.30
52947;DHT22;68773;40.400;17.260;2023-04-24T14:42:27;21.70;77.40
52947;DHT22;68773;40.400;17.260;2023-04-24T14:44:54;21.70;76.60
52947;DHT22;68773;40.400;17.260;2023-04-24T14:47:20;21.60;76.40
52947;DHT22;68773;40.400;17.260;2023-04-24T14:49:48;21.60;75.40
52947;DHT22;68773;40.400;17.260;2023-04-24T14:52:14;21.60;75.90
52947;DHT22;68773;40.400;17.260;2023-04-24T14:54:41;21.60;77.50
52947;DHT22;68773;40.400;17.260;2023-04-24T14:57:07;21.40;78.90
52947;DHT22;68773;40.400;17.260;2023-04-24T14:59:33;21.40;79.90
52947;DHT22;68773;40.400;17.260;2023-04-24T15:01:59;21.30;80.70
52947;DHT22;68773;40.400;17.260;2023-04-24T15:04:25;21.20;80.40
52947;DHT22;68773;40.400;17.260;2023-04-24T15:06:51;21.30;79.20
52947;DHT22;68773;40.400;17.260;2023-04-24T15:09:22;21.30;79.50
52947;DHT22;68773;40.400;17.260;2023-04-24T15:11:49;21.40;79.60
52947;DHT22;68773;40.400;17.260;2023-04-24T15:14:15;21.50;79.90
52947;DHT22;68773;40.400;17.260;2023-04-24T15:16:41;21.30;78.40
52947;DHT22;68773;40.400;17.260;2023-04-24T15:19:07;21.40;77.50
52947;DHT22;68773;40.400;17.260;2023-04-24T15:21:33;21.30;76.70
52947;DHT22;68773;40.400;17.260;2023-04-24T15:23:59;21.40;75.40
52947;DHT22;68773;40.400;17.260;2023-04-24T15:26:25;21.90;75.20
52947;DHT22;68773;40.400;17.260;2023-04-24T15:28:51;21.70;75.40
52947;DHT22;68773;40.400;17.260;2023-04-24T15:31:17;21.90;75.80
52947;DHT22;68773;40.400;17.260;2023-04-24T15:33:43;21.60;76.20